Time;durP1;ratioP1;P1;durP2;ratioP2;P2;SDS_P1;SDS_P2;PMS_P1;PMS_P2;Temp;Humidity;BMP_temperature;BMP_pressure;BME280_temperature;BME280_humidity;BME280_pressure;Samples;Min_cycle;Max_cycle;Signal;HPM_P1;HPM_P2
2020/12/07 00:01:19;;;;;;;;;;;4.50;99.90;;;;;;5034220;28;20392;-81
2020/12/07 00:03:45;;;;;;;;;;;4.50;99.90;;;;;;5050974;28;19929;-81
2020/12/07 00:06:15;;;;;;;;;;;4.60;99.90;;;;;;5035841;28;19971;-80
2020/12/07 00:08:41;;;;;;;;;;;4.50;99.90;;;;;;5049534;28;20344;-81
2020/12/07 00:11:08;;;;;;;;;;;4.50;99.90;;;;;;5051598;28;19917;-80
2020/12/07 00:13:34;;;;;;;;;;;4.50;99.90;;;;;;5032385;28;19927;-81
2020/12/07 00:16:00;;;;;;;;;;;4.50;99.90;;;;;;5036462;28;20007;-81
2020/12/07 00:18:26;;;;;;;;;;;4.50;99.90;;;;;;5052412;28;20355;-81
2020/12/07 00:20:52;;;;;;;;;;;4.50;99.90;;;;;;5036164;28;20418;-80
2020/12/07 00:23:17;;;;;;;;;;;4.60;99.90;;;;;;5036295;28;19917;-81
2020/12/07 00:25:43;;;;;;;;;;;4.70;99.90;;;;;;5050510;28;19917;-82
2020/12/07 00:28:09;;;;;;;;;;;4.70;99.90;;;;;;5032957;28;19959;-81
2020/12/07 00:30:35;;;;;;;;;;;4.70;99.90;;;;;;5036303;28;19967;-81
2020/12/07 00:33:00;;;;;;;;;;;4.60;99.90;;;;;;5050256;28;19917;-81
2020/12/07 00:35:27;;;;;;;;;;;4.60;99.90;;;;;;5049696;28;20003;-81
2020/12/07 00:37:52;;;;;;;;;;;4.60;99.90;;;;;;5033590;28;19921;-79
2020/12/07 00:40:18;;;;;;;;;;;4.60;99.90;;;;;;5033187;28;20426;-79
2020/12/07 00:42:44;;;;;;;;;;;4.50;99.90;;;;;;5034591;28;19921;-80
2020/12/07 00:45:09;;;;;;;;;;;4.50;99.90;;;;;;5049871;28;19916;-81
2020/12/07 00:47:35;;;;;;;;;;;4.50;99.90;;;;;;5049798;28;19949;-81
2020/12/07 00:50:00;;;;;;;;;;;4.40;99.90;;;;;;5035328;28;19916;-81
2020/12/07 00:52:27;;;;;;;;;;;4.40;99.90;;;;;;5054521;28;19964;-82
2020/12/07 00:54:53;;;;;;;;;;;4.40;99.90;;;;;;5053914;28;19928;-82
2020/12/07 00:57:18;;;;;;;;;;;4.40;99.90;;;;;;5054219;28;20343;-82
2020/12/07 00:59:44;;;;;;;;;;;4.40;99.90;;;;;;5053936;28;19990;-81
2020/12/07 01:02:12;;;;;;;;;;;4.40;99.90;;;;;;5038164;28;19917;-81
2020/12/07 01:04:38;;;;;;;;;;;4.40;99.90;;;;;;5054490;28;19921;-82
2020/12/07 01:07:04;;;;;;;;;;;4.40;99.90;;;;;;5055026;28;20407;-82
2020/12/07 01:09:30;;;;;;;;;;;4.40;99.90;;;;;;5054164;28;19956;-82
2020/12/07 01:11:57;;;;;;;;;;;4.40;99.90;;;;;;5053888;28;20331;-82
2020/12/07 01:14:23;;;;;;;;;;;4.40;99.90;;;;;;5054383;28;20024;-83
2020/12/07 01:16:48;;;;;;;;;;;4.40;99.90;;;;;;5054075;28;20027;-82
2020/12/07 01:19:14;;;;;;;;;;;4.40;99.90;;;;;;5040631;28;19944;-82
2020/12/07 01:21:40;;;;;;;;;;;4.40;99.90;;;;;;5039392;28;19917;-80
2020/12/07 01:24:05;;;;;;;;;;;4.40;99.90;;;;;;5037363;28;19940;-81
2020/12/07 01:26:32;;;;;;;;;;;4.40;99.90;;;;;;5053584;28;19917;-81
2020/12/07 01:28:58;;;;;;;;;;;4.40;99.90;;;;;;5053114;28;19921;-81
2020/12/07 01:31:23;;;;;;;;;;;4.40;99.90;;;;;;5036990;28;19916;-82
2020/12/07 01:33:49;;;;;;;;;;;4.40;99.90;;;;;;5038115;28;19957;-82
2020/12/07 01:36:15;;;;;;;;;;;4.40;99.90;;;;;;5039638;28;19925;-82
2020/12/07 01:38:40;;;;;;;;;;;4.40;99.90;;;;;;5055545;28;19921;-81
2020/12/07 01:41:06;;;;;;;;;;;4.40;99.90;;;;;;5055834;28;19917;-82
2020/12/07 01:43:33;;;;;;;;;;;4.40;99.90;;;;;;5039372;28;20392;-82
2020/12/07 01:45:58;;;;;;;;;;;4.40;99.90;;;;;;5055334;28;19921;-82
2020/12/07 01:48:25;;;;;;;;;;;4.30;99.90;;;;;;5054796;28;19924;-82
2020/12/07 01:50:51;;;;;;;;;;;4.30;99.90;;;;;;5055054;28;20336;-82
2020/12/07 01:53:17;;;;;;;;;;;4.30;99.90;;;;;;5040409;28;19925;-82
2020/12/07 01:55:45;;;;;;;;;;;4.30;99.90;;;;;;5040477;28;19980;-80
2020/12/07 01:58:11;;;;;;;;;;;4.40;99.90;;;;;;5036458;28;20293;-82
2020/12/07 02:00:38;;;;;;;;;;;4.40;99.90;;;;;;5029943;28;19917;-78
2020/12/07 02:03:10;;;;;;;;;;;4.40;99.90;;;;;;5027893;28;20015;-78
2020/12/07 02:05:36;;;;;;;;;;;4.40;99.90;;;;;;5030466;28;20008;-78
2020/12/07 02:08:08;;;;;;;;;;;4.40;99.90;;;;;;5035204;28;19956;-78
2020/12/07 02:10:34;;;;;;;;;;;4.40;99.90;;;;;;5035393;28;19929;-78
2020/12/07 02:13:00;;;;;;;;;;;4.40;99.90;;;;;;5042993;28;20400;-78
2020/12/07 02:15:25;;;;;;;;;;;4.40;99.90;;;;;;5051832;28;19963;-78
2020/12/07 02:17:52;;;;;;;;;;;4.40;99.90;;;;;;5051712;28;19963;-77
2020/12/07 02:20:18;;;;;;;;;;;4.40;99.90;;;;;;5035011;28;19921;-78
2020/12/07 02:22:44;;;;;;;;;;;4.50;99.90;;;;;;5035066;28;19921;-78
2020/12/07 02:25:09;;;;;;;;;;;4.50;99.90;;;;;;5051977;28;19921;-78
2020/12/07 02:27:35;;;;;;;;;;;4.50;99.90;;;;;;5051563;28;19921;-78
2020/12/07 02:30:01;;;;;;;;;;;4.50;99.90;;;;;;5051912;28;20368;-78
2020/12/07 02:32:26;;;;;;;;;;;4.50;99.90;;;;;;5034943;28;19917;-78
2020/12/07 02:34:52;;;;;;;;;;;4.50;99.90;;;;;;5051606;28;19917;-78
2020/12/07 02:37:18;;;;;;;;;;;4.50;99.90;;;;;;5036054;28;19939;-78
2020/12/07 02:39:44;;;;;;;;;;;4.50;99.90;;;;;;5034687;28;19976;-78
2020/12/07 02:42:10;;;;;;;;;;;4.50;99.90;;;;;;5034954;28;19917;-78
2020/12/07 02:44:35;;;;;;;;;;;4.40;99.90;;;;;;5034812;28;19917;-79
2020/12/07 02:47:01;;;;;;;;;;;4.30;99.90;;;;;;5051215;28;19917;-78
2020/12/07 02:49:29;;;;;;;;;;;4.30;99.90;;;;;;5051098;28;19917;-78
2020/12/07 02:51:55;;;;;;;;;;;4.40;99.90;;;;;;5051344;28;20365;-78
2020/12/07 02:54:22;;;;;;;;;;;4.40;99.90;;;;;;5051442;28;19964;-77
2020/12/07 02:56:47;;;;;;;;;;;4.40;99.90;;;;;;5050990;28;19921;-78
2020/12/07 02:59:13;;;;;;;;;;;4.30;99.90;;;;;;5051292;28;20027;-78
2020/12/07 03:01:38;;;;;;;;;;;4.30;99.90;;;;;;5051029;28;19916;-78
2020/12/07 03:04:04;;;;;;;;;;;4.30;99.90;;;;;;5034293;28;19928;-78
2020/12/07 03:06:30;;;;;;;;;;;4.30;99.90;;;;;;5034408;28;19921;-78
2020/12/07 03:08:55;;;;;;;;;;;4.30;99.90;;;;;;5035450;28;19917;-78
2020/12/07 03:11:22;;;;;;;;;;;4.30;99.90;;;;;;5035260;28;19928;-78
2020/12/07 03:13:48;;;;;;;;;;;4.20;99.90;;;;;;5049531;28;20404;-77
2020/12/07 03:16:13;;;;;;;;;;;4.20;99.90;;;;;;5050560;28;19917;-78
2020/12/07 03:18:39;;;;;;;;;;;4.20;99.90;;;;;;5050533;28;19960;-77
2020/12/07 03:21:05;;;;;;;;;;;4.20;99.90;;;;;;5035249;28;20438;-77
2020/12/07 03:23:30;;;;;;;;;;;4.20;99.90;;;;;;5050569;28;19969;-78
2020/12/07 03:25:56;;;;;;;;;;;4.20;99.90;;;;;;5019917;28;20329;-78
2020/12/07 03:28:22;;;;;;;;;;;4.20;99.90;;;;;;5033819;28;20285;-78
2020/12/07 03:30:48;;;;;;;;;;;4.30;99.90;;;;;;5034907;28;19921;-77
2020/12/07 03:33:14;;;;;;;;;;;4.20;99.90;;;;;;5050492;28;19917;-78
2020/12/07 03:35:39;;;;;;;;;;;4.20;99.90;;;;;;5050309;28;20011;-78
2020/12/07 03:38:05;;;;;;;;;;;4.30;99.90;;;;;;5033832;28;19948;-77
2020/12/07 03:40:31;;;;;;;;;;;4.30;99.90;;;;;;5033612;28;19940;-77
2020/12/07 03:42:57;;;;;;;;;;;4.30;99.90;;;;;;5036399;28;19923;-77
2020/12/07 03:45:23;;;;;;;;;;;4.30;99.90;;;;;;5050091;28;19960;-77
2020/12/07 03:47:49;;;;;;;;;;;4.20;99.90;;;;;;5033477;28;19928;-77
2020/12/07 03:50:15;;;;;;;;;;;;;;;;;;5033610;28;19917;-77
2020/12/07 03:52:41;;;;;;;;;;;4.10;99.90;;;;;;5019392;28;19910;-77
2020/12/07 03:55:06;;;;;;;;;;;4.10;99.90;;;;;;5049847;28;19917;-77
2020/12/07 03:57:32;;;;;;;;;;;4.10;99.90;;;;;;5049801;28;19920;-78
2020/12/07 03:59:57;;;;;;;;;;;4.10;99.90;;;;;;5033213;28;19921;-77
2020/12/07 04:02:24;;;;;;;;;;;4.00;99.90;;;;;;5034417;28;19917;-77
2020/12/07 04:05:00;;;;;;;;;;;4.10;99.90;;;;;;5032892;28;20004;-77
2020/12/07 04:07:26;;;;;;;;;;;4.20;99.90;;;;;;5049711;28;19924;-77
2020/12/07 04:09:51;;;;;;;;;;;4.10;99.90;;;;;;5029835;28;19917;-77
2020/12/07 04:12:17;;;;;;;;;;;4.20;99.90;;;;;;5049073;28;19939;-77
2020/12/07 04:14:43;;;;;;;;;;;4.20;99.90;;;;;;5033015;28;19931;-77
2020/12/07 04:17:08;;;;;;;;;;;4.10;99.90;;;;;;5034167;28;19924;-77
2020/12/07 04:19:35;;;;;;;;;;;4.10;99.90;;;;;;5034176;28;20326;-77
2020/12/07 04:22:00;;;;;;;;;;;4.10;99.90;;;;;;5049423;28;20430;-77
2020/12/07 04:24:26;;;;;;;;;;;4.10;99.90;;;;;;5049236;28;19943;-77
2020/12/07 04:26:51;;;;;;;;;;;4.10;99.90;;;;;;5049535;28;19917;-77
2020/12/07 04:29:17;;;;;;;;;;;4.00;99.90;;;;;;5033966;28;19958;-77
2020/12/07 04:31:43;;;;;;;;;;;4.10;99.90;;;;;;5032741;28;20372;-77
2020/12/07 04:34:08;;;;;;;;;;;4.00;99.90;;;;;;5049275;28;19917;-77
2020/12/07 04:36:35;;;;;;;;;;;4.00;99.90;;;;;;5032775;28;19921;-77
2020/12/07 04:39:00;;;;;;;;;;;4.00;99.90;;;;;;5032687;28;19921;-77
2020/12/07 04:41:26;;;;;;;;;;;3.90;99.90;;;;;;5049324;28;19948;-77
2020/12/07 04:43:52;;;;;;;;;;;3.90;99.90;;;;;;5049411;28;19967;-77
2020/12/07 04:46:18;;;;;;;;;;;3.90;99.90;;;;;;5033827;28;19924;-77
2020/12/07 04:48:45;;;;;;;;;;;4.00;99.90;;;;;;5049209;28;19984;-77
2020/12/07 04:51:11;;;;;;;;;;;4.00;99.90;;;;;;5049221;28;19917;-77
2020/12/07 04:53:38;;;;;;;;;;;4.00;99.90;;;;;;5049111;28;19917;-77
2020/12/07 04:56:03;;;;;;;;;;;4.00;99.90;;;;;;5033636;28;19921;-77
2020/12/07 04:58:29;;;;;;;;;;;3.90;99.90;;;;;;5032514;28;19967;-77
2020/12/07 05:00:55;;;;;;;;;;;3.90;99.90;;;;;;5033921;28;20296;-77
2020/12/07 05:03:20;;;;;;;;;;;3.80;99.90;;;;;;5048808;28;19921;-77
2020/12/07 05:05:49;;;;;;;;;;;3.80;99.90;;;;;;5032401;28;19944;-78
2020/12/07 05:08:15;;;;;;;;;;;3.80;99.90;;;;;;5030581;28;19925;-77
2020/12/07 05:10:43;;;;;;;;;;;3.80;99.90;;;;;;5033676;28;20000;-77
2020/12/07 05:13:21;;;;;;;;;;;3.70;99.90;;;;;;5033659;28;19921;-76
2020/12/07 05:15:47;;;;;;;;;;;3.70;99.90;;;;;;5033860;28;20328;-76
2020/12/07 05:18:12;;;;;;;;;;;3.80;99.90;;;;;;5032455;28;19917;-76
2020/12/07 05:20:38;;;;;;;;;;;;;;;;;;5048138;28;19916;-76
2020/12/07 05:23:04;;;;;;;;;;;;;;;;;;5048607;28;19905;-77
2020/12/07 05:25:30;;;;;;;;;;;;;;;;;;5031614;28;20357;-76
2020/12/07 05:27:56;;;;;;;;;;;;;;;;;;5048589;28;20481;-76
2020/12/07 05:30:29;;;;;;;;;;;3.70;99.90;;;;;;5042622;28;20289;-77
2020/12/07 05:32:55;;;;;;;;;;;3.60;99.90;;;;;;5033270;28;20392;-76
2020/12/07 05:35:21;;;;;;;;;;;3.60;99.90;;;;;;5033369;28;19932;-77
2020/12/07 05:37:46;;;;;;;;;;;3.60;99.90;;;;;;5027867;28;19917;-77
2020/12/07 05:40:13;;;;;;;;;;;3.50;99.90;;;;;;5035799;28;19917;-77
2020/12/07 05:42:38;;;;;;;;;;;3.60;99.90;;;;;;5036868;28;19921;-77
2020/12/07 05:45:05;;;;;;;;;;;3.50;99.90;;;;;;5052682;28;20013;-77
2020/12/07 05:47:33;;;;;;;;;;;3.60;99.90;;;;;;5048788;28;19917;-77
2020/12/07 05:49:59;;;;;;;;;;;3.60;99.90;;;;;;5046660;28;19964;-77
2020/12/07 05:52:33;;;;;;;;;;;3.50;99.90;;;;;;5051743;28;19956;-77
2020/12/07 05:55:00;;;;;;;;;;;3.50;99.90;;;;;;5035274;28;20327;-77
2020/12/07 05:57:27;;;;;;;;;;;3.40;99.90;;;;;;5049821;28;20289;-77
2020/12/07 05:59:54;;;;;;;;;;;3.40;99.90;;;;;;5034615;28;19960;-77
2020/12/07 06:02:21;;;;;;;;;;;3.40;99.90;;;;;;5051524;28;19971;-77
2020/12/07 06:04:47;;;;;;;;;;;3.40;99.90;;;;;;5050353;28;19972;-77
2020/12/07 06:07:15;;;;;;;;;;;3.40;99.90;;;;;;5047756;28;19927;-77
2020/12/07 06:09:42;;;;;;;;;;;3.50;99.90;;;;;;5035259;28;19920;-77
2020/12/07 06:12:10;;;;;;;;;;;3.50;99.90;;;;;;5033615;28;20004;-77
2020/12/07 06:14:37;;;;;;;;;;;3.40;99.90;;;;;;5034980;28;19963;-77
2020/12/07 06:17:02;;;;;;;;;;;3.40;99.90;;;;;;5035354;28;20357;-77
2020/12/07 06:19:30;;;;;;;;;;;3.40;99.90;;;;;;5048046;28;19974;-77
2020/12/07 06:21:58;;;;;;;;;;;3.30;99.90;;;;;;5033245;28;19964;-77
2020/12/07 06:24:36;;;;;;;;;;;3.30;99.90;;;;;;5031519;28;19980;-77
2020/12/07 06:27:02;;;;;;;;;;;3.30;99.90;;;;;;5026261;28;19966;-78
2020/12/07 06:29:28;;;;;;;;;;;3.30;99.90;;;;;;5031416;28;19925;-78
2020/12/07 06:31:55;;;;;;;;;;;3.30;99.90;;;;;;5032203;28;20432;-78
2020/12/07 06:34:21;;;;;;;;;;;3.30;99.90;;;;;;5026623;28;19917;-77
2020/12/07 06:36:48;;;;;;;;;;;3.30;99.90;;;;;;5031655;28;19979;-77
2020/12/07 06:39:14;;;;;;;;;;;3.30;99.90;;;;;;5049780;28;19924;-77
2020/12/07 06:41:41;;;;;;;;;;;3.30;99.90;;;;;;5026699;28;19959;-77
2020/12/07 06:44:08;;;;;;;;;;;3.40;99.90;;;;;;5023484;28;20452;-78
2020/12/07 06:46:48;;;;;;;;;;;3.40;99.90;;;;;;5034285;28;20381;-77
2020/12/07 06:49:13;;;;;;;;;;;3.40;99.90;;;;;;5034008;28;19924;-77
2020/12/07 06:51:39;;;;;;;;;;;3.40;99.90;;;;;;5022685;28;19932;-77
2020/12/07 06:54:13;;;;;;;;;;;3.40;99.90;;;;;;5046411;28;20301;-78
2020/12/07 06:56:40;;;;;;;;;;;3.40;99.90;;;;;;5032798;28;19917;-77
2020/12/07 06:59:07;;;;;;;;;;;3.40;99.90;;;;;;5016564;28;19945;-77
2020/12/07 07:01:33;;;;;;;;;;;3.50;99.90;;;;;;5025701;28;20377;-77
2020/12/07 07:03:59;;;;;;;;;;;3.50;99.90;;;;;;5048819;28;19964;-77
2020/12/07 07:06:24;;;;;;;;;;;3.50;99.90;;;;;;5020690;28;19956;-77
2020/12/07 07:08:51;;;;;;;;;;;3.50;99.90;;;;;;5042691;28;20022;-77
2020/12/07 07:11:16;;;;;;;;;;;3.50;99.90;;;;;;5032199;28;19917;-77
2020/12/07 07:13:47;;;;;;;;;;;3.50;99.90;;;;;;5028094;28;19923;-77
2020/12/07 07:16:13;;;;;;;;;;;3.60;99.90;;;;;;5029699;28;19944;-78
2020/12/07 07:18:40;;;;;;;;;;;3.50;99.90;;;;;;5033319;28;19921;-77
2020/12/07 07:21:06;;;;;;;;;;;3.60;99.90;;;;;;5034640;28;19917;-77
2020/12/07 07:23:35;;;;;;;;;;;3.60;99.90;;;;;;5019829;28;19917;-78
2020/12/07 07:26:14;;;;;;;;;;;3.60;99.90;;;;;;5049759;28;20447;-77
2020/12/07 07:28:40;;;;;;;;;;;3.60;99.90;;;;;;5033555;28;20015;-77
2020/12/07 07:31:07;;;;;;;;;;;3.50;99.90;;;;;;5049635;28;19921;-77
2020/12/07 07:33:33;;;;;;;;;;;3.60;99.90;;;;;;5032643;28;19944;-77
2020/12/07 07:35:59;;;;;;;;;;;3.60;99.90;;;;;;5049541;28;19917;-77
2020/12/07 07:38:27;;;;;;;;;;;3.50;99.90;;;;;;5049135;28;20000;-77
2020/12/07 07:40:52;;;;;;;;;;;3.50;99.90;;;;;;5016960;28;19975;-78
2020/12/07 07:43:23;;;;;;;;;;;3.50;99.90;;;;;;5018249;28;19952;-77
2020/12/07 07:45:56;;;;;;;;;;;3.50;99.90;;;;;;5049326;28;20251;-77
2020/12/07 08:17:47;;;;;;;;;;;3.50;99.90;;;;;;4964447;28;19926;-76
2020/12/07 08:20:14;;;;;;;;;;;3.40;99.90;;;;;;4979365;28;19940;-77
2020/12/07 08:22:39;;;;;;;;;;;3.40;99.90;;;;;;4994396;28;19930;-76
2020/12/07 08:25:06;;;;;;;;;;;3.60;99.90;;;;;;4994915;28;19928;-77
2020/12/07 08:27:32;;;;;;;;;;;3.60;99.90;;;;;;4994497;28;19917;-77
2020/12/07 08:29:58;;;;;;;;;;;3.60;99.90;;;;;;5009838;28;20012;-77
2020/12/07 08:32:24;;;;;;;;;;;3.60;99.90;;;;;;4995827;28;20021;-77
2020/12/07 08:34:50;;;;;;;;;;;3.60;99.90;;;;;;4997027;28;19957;-78
2020/12/07 08:37:18;;;;;;;;;;;3.60;99.90;;;;;;5009642;28;19953;-77
2020/12/07 08:39:43;;;;;;;;;;;3.70;99.90;;;;;;4993475;28;20373;-77
2020/12/07 08:42:10;;;;;;;;;;;3.80;99.90;;;;;;5009507;28;19968;-77
2020/12/07 08:44:37;;;;;;;;;;;3.80;99.90;;;;;;5009625;28;19917;-77
2020/12/07 08:47:05;;;;;;;;;;;3.80;99.90;;;;;;4993414;28;19917;-78
2020/12/07 08:49:31;;;;;;;;;;;3.80;99.90;;;;;;5009451;28;19922;-77
2020/12/07 08:51:56;;;;;;;;;;;3.80;99.90;;;;;;5009497;28;20392;-78
2020/12/07 08:54:25;;;;;;;;;;;3.80;99.90;;;;;;4993245;28;19924;-78
2020/12/07 08:56:50;;;;;;;;;;;3.90;99.90;;;;;;5009656;28;19976;-78
2020/12/07 08:59:16;;;;;;;;;;;3.90;99.90;;;;;;5009384;28;19957;-78
2020/12/07 09:01:42;;;;;;;;;;;4.00;99.90;;;;;;4994594;28;19925;-78
2020/12/07 09:04:10;;;;;;;;;;;4.00;99.90;;;;;;5008917;28;19989;-78
2020/12/07 09:06:36;;;;;;;;;;;4.00;99.90;;;;;;4992926;28;19918;-78
2020/12/07 09:09:02;;;;;;;;;;;4.00;99.90;;;;;;5009298;28;19922;-78
2020/12/07 09:11:29;;;;;;;;;;;4.00;99.90;;;;;;4996279;28;19918;-78
2020/12/07 09:13:54;;;;;;;;;;;4.10;99.90;;;;;;5013178;28;19968;-78
2020/12/07 09:16:20;;;;;;;;;;;4.10;99.90;;;;;;4997000;28;20297;-78
2020/12/07 09:18:46;;;;;;;;;;;4.10;99.90;;;;;;5013183;28;19961;-78
2020/12/07 09:21:12;;;;;;;;;;;4.10;99.90;;;;;;4997742;28;19918;-77
2020/12/07 09:23:38;;;;;;;;;;;4.10;99.90;;;;;;5012923;28;20031;-78
2020/12/07 09:26:04;;;;;;;;;;;4.10;99.90;;;;;;4996734;28;19917;-78
2020/12/07 09:28:31;;;;;;;;;;;4.10;99.90;;;;;;5012794;28;19921;-78
2020/12/07 09:30:56;;;;;;;;;;;4.10;99.90;;;;;;5012652;28;19921;-78
2020/12/07 09:33:22;;;;;;;;;;;4.10;99.90;;;;;;5012758;28;19924;-79
2020/12/07 09:35:48;;;;;;;;;;;4.20;99.90;;;;;;4996582;28;20332;-78
2020/12/07 09:38:13;;;;;;;;;;;4.20;99.90;;;;;;5012724;28;19957;-78
2020/12/07 09:40:39;;;;;;;;;;;4.30;99.90;;;;;;4994048;28;19918;-78
2020/12/07 09:43:05;;;;;;;;;;;4.30;99.90;;;;;;4997729;28;20004;-78
2020/12/07 09:45:32;;;;;;;;;;;4.30;99.90;;;;;;5012764;28;19972;-78
2020/12/07 09:47:58;;;;;;;;;;;4.30;99.90;;;;;;5012590;28;19921;-78
2020/12/07 09:50:24;;;;;;;;;;;4.20;99.90;;;;;;5012657;28;20004;-78
2020/12/07 09:52:49;;;;;;;;;;;4.20;99.90;;;;;;4996214;28;19957;-78
2020/12/07 09:55:15;;;;;;;;;;;4.20;99.90;;;;;;5012569;28;20357;-78
2020/12/07 09:57:41;;;;;;;;;;;4.30;99.90;;;;;;4997633;28;19925;-78
2020/12/07 10:00:06;;;;;;;;;;;4.30;99.90;;;;;;4997252;28;19923;-78
2020/12/07 10:02:34;;;;;;;;;;;4.30;99.90;;;;;;4997337;28;20032;-78
2020/12/07 10:05:00;;;;;;;;;;;4.30;99.90;;;;;;5012081;28;20405;-78
2020/12/07 10:07:26;;;;;;;;;;;4.40;99.90;;;;;;4997147;28;19917;-78
2020/12/07 10:09:51;;;;;;;;;;;4.30;99.90;;;;;;4995830;28;19926;-78
2020/12/07 10:12:17;;;;;;;;;;;4.30;99.90;;;;;;5012030;28;20320;-78
2020/12/07 10:14:43;;;;;;;;;;;4.30;99.90;;;;;;5012210;28;20361;-78
2020/12/07 10:17:08;;;;;;;;;;;4.30;99.90;;;;;;4995642;28;19990;-78
2020/12/07 10:19:34;;;;;;;;;;;;;;;;;;4995741;28;19918;-78
2020/12/07 10:22:00;;;;;;;;;;;;;;;;;;4995504;28;20329;-78
2020/12/07 10:24:26;;;;;;;;;;;;;;;;;;4996760;28;19906;-79
2020/12/07 10:26:52;;;;;;;;;;;;;;;;;;4996994;28;19913;-79
2020/12/07 10:29:18;;;;;;;;;;;;;;;;;;4996657;28;19914;-79
2020/12/07 10:31:44;;;;;;;;;;;;;;;;;;4995541;28;19949;-79
2020/12/07 10:34:10;;;;;;;;;;;;;;;;;;4992693;28;19910;-79
2020/12/07 10:36:37;;;;;;;;;;;;;;;;;;5011575;28;19913;-78
2020/12/07 10:39:04;;;;;;;;;;;;;;;;;;5001339;28;20309;-79
2020/12/07 10:41:30;;;;;;;;;;;;;;;;;;4995641;28;20389;-79
2020/12/07 10:43:57;;;;;;;;;;;;;;;;;;5011912;28;19953;-79
2020/12/07 10:46:23;;;;;;;;;;;4.30;99.90;;;;;;5000140;28;19955;-79
2020/12/07 10:48:49;;;;;;;;;;;4.00;99.90;;;;;;5011336;28;20358;-79
2020/12/07 10:51:16;;;;;;;;;;;4.10;99.90;;;;;;5011058;28;19988;-79
2020/12/07 10:53:41;;;;;;;;;;;4.20;99.90;;;;;;5016060;28;19921;-79
2020/12/07 10:56:10;;;;;;;;;;;4.30;99.90;;;;;;4999549;28;20325;-79
2020/12/07 10:58:37;;;;;;;;;;;4.30;99.90;;;;;;4996383;28;19940;-78
2020/12/07 11:01:03;;;;;;;;;;;4.30;99.90;;;;;;5011585;28;19918;-79
2020/12/07 11:03:30;;;;;;;;;;;4.20;99.90;;;;;;5011354;28;19976;-79
2020/12/07 11:05:56;;;;;;;;;;;4.20;99.90;;;;;;4995264;28;20382;-77
2020/12/07 11:08:31;;;;;;;;;;;4.20;99.90;;;;;;5011282;28;19929;-80
2020/12/07 11:10:59;;;;;;;;;;;4.20;99.90;;;;;;5009855;28;19949;-79
2020/12/07 11:13:30;;;;;;;;;;;4.20;99.90;;;;;;4996224;28;19918;-79
2020/12/07 11:16:00;;;;;;;;;;;4.20;99.90;;;;;;5011298;28;20282;-78
2020/12/07 11:18:26;;;;;;;;;;;4.20;99.90;;;;;;4994781;28;19972;-78
2020/12/07 11:20:52;;;;;;;;;;;4.30;99.90;;;;;;4994878;28;19918;-78
2020/12/07 11:23:18;;;;;;;;;;;4.20;99.90;;;;;;5011339;28;19922;-78
2020/12/07 11:25:44;;;;;;;;;;;4.30;99.90;;;;;;5011004;28;19952;-78
2020/12/07 11:28:10;;;;;;;;;;;4.20;99.90;;;;;;5011065;28;20320;-78
2020/12/07 11:30:35;;;;;;;;;;;4.10;99.90;;;;;;4994618;28;19928;-81
2020/12/07 11:33:04;;;;;;;;;;;4.20;99.90;;;;;;5010591;28;20031;-80
2020/12/07 11:35:29;;;;;;;;;;;4.20;99.90;;;;;;5006714;28;19925;-79
2020/12/07 11:38:17;;;;;;;;;;;4.20;99.90;;;;;;5011054;28;19922;-78
2020/12/07 11:43:46;;;;;;;;;;;4.20;99.90;;;;;;4990906;28;20281;-79
2020/12/07 11:46:15;;;;;;;;;;;4.10;99.90;;;;;;5009260;28;19952;-78
2020/12/07 11:48:41;;;;;;;;;;;4.20;99.90;;;;;;5013242;28;19972;-79
2020/12/07 11:51:07;;;;;;;;;;;4.10;99.90;;;;;;5010716;28;19918;-78
2020/12/07 11:53:33;;;;;;;;;;;4.10;99.90;;;;;;5009829;28;19917;-79
2020/12/07 11:55:59;;;;;;;;;;;4.10;99.90;;;;;;5008635;28;19922;-78
2020/12/07 11:58:25;;;;;;;;;;;4.10;99.90;;;;;;4992138;28;20374;-79
2020/12/07 12:00:50;;;;;;;;;;;4.10;99.90;;;;;;4994829;28;20013;-78
2020/12/07 12:03:16;;;;;;;;;;;4.20;99.90;;;;;;5010225;28;19928;-79
2020/12/07 12:05:41;;;;;;;;;;;4.20;99.90;;;;;;5006812;28;19972;-79
2020/12/07 12:08:07;;;;;;;;;;;4.20;99.90;;;;;;5011793;28;20341;-78
2020/12/07 12:10:34;;;;;;;;;;;4.20;99.90;;;;;;5007134;28;19921;-78
2020/12/07 12:12:59;;;;;;;;;;;4.30;99.90;;;;;;5004930;28;19929;-78
2020/12/07 12:15:25;;;;;;;;;;;4.30;99.90;;;;;;5004648;28;20297;-79
2020/12/07 12:17:51;;;;;;;;;;;4.30;99.90;;;;;;4999527;28;19924;-79
2020/12/07 12:20:16;;;;;;;;;;;4.40;99.90;;;;;;4994656;28;20293;-79
2020/12/07 12:22:42;;;;;;;;;;;4.40;99.90;;;;;;5002243;28;19933;-79
2020/12/07 12:25:07;;;;;;;;;;;4.40;99.90;;;;;;4988312;28;19953;-79
2020/12/07 12:27:34;;;;;;;;;;;4.50;99.90;;;;;;5011850;28;19917;-79
2020/12/07 12:30:00;;;;;;;;;;;4.60;99.90;;;;;;5013412;28;20431;-78
2020/12/07 12:32:25;;;;;;;;;;;4.60;99.90;;;;;;5005239;28;19922;-78
2020/12/07 12:34:51;;;;;;;;;;;4.60;99.90;;;;;;5001702;28;20441;-78
2020/12/07 12:37:16;;;;;;;;;;;4.60;99.90;;;;;;4993442;28;20016;-78
2020/12/07 12:39:42;;;;;;;;;;;4.60;99.90;;;;;;5004370;28;19918;-78
2020/12/07 12:42:08;;;;;;;;;;;4.60;99.90;;;;;;4993723;28;19918;-79
2020/12/07 12:44:34;;;;;;;;;;;4.70;99.90;;;;;;4996351;28;19969;-79
2020/12/07 12:47:00;;;;;;;;;;;4.60;99.90;;;;;;4987193;28;19922;-78
2020/12/07 12:49:25;;;;;;;;;;;4.60;99.90;;;;;;5012978;28;19972;-79
2020/12/07 12:51:51;;;;;;;;;;;4.60;99.90;;;;;;5002297;28;19924;-78
2020/12/07 12:54:17;;;;;;;;;;;4.60;99.90;;;;;;5002328;28;20362;-80
2020/12/07 12:56:43;;;;;;;;;;;4.60;99.90;;;;;;4996862;28;19917;-79
2020/12/07 12:59:08;;;;;;;;;;;4.60;99.90;;;;;;4996181;28;19973;-79
2020/12/07 13:01:35;;;;;;;;;;;4.70;99.90;;;;;;5015656;28;19918;-78
2020/12/07 13:04:01;;;;;;;;;;;4.70;99.90;;;;;;5008446;28;20301;-77
2020/12/07 13:06:31;;;;;;;;;;;4.70;99.90;;;;;;4999931;28;19917;-78
2020/12/07 13:08:57;;;;;;;;;;;4.80;99.90;;;;;;5011717;28;20389;-77
2020/12/07 13:11:27;;;;;;;;;;;4.90;99.90;;;;;;5012104;28;19964;-78
2020/12/07 13:13:53;;;;;;;;;;;4.90;99.90;;;;;;4995559;28;19918;-78
2020/12/07 13:16:21;;;;;;;;;;;4.90;99.90;;;;;;5015340;28;20393;-78
2020/12/07 13:18:51;;;;;;;;;;;4.90;99.90;;;;;;4992097;28;19917;-78
2020/12/07 13:21:31;;;;;;;;;;;4.90;99.90;;;;;;4999790;28;19930;-77
2020/12/07 13:24:15;;;;;;;;;;;4.90;99.90;;;;;;4986497;28;20435;-78
2020/12/07 13:27:12;;;;;;;;;;;5.00;99.90;;;;;;5010215;28;19917;-77
2020/12/07 13:29:38;;;;;;;;;;;5.10;99.90;;;;;;4991581;28;19944;-78
2020/12/07 13:32:04;;;;;;;;;;;5.10;99.90;;;;;;4996253;28;19917;-77
2020/12/07 13:34:30;;;;;;;;;;;5.20;99.90;;;;;;4995066;28;19973;-77
2020/12/07 13:36:56;;;;;;;;;;;5.20;99.90;;;;;;4995935;28;19933;-78
2020/12/07 13:39:21;;;;;;;;;;;5.20;99.90;;;;;;4999188;28;20401;-78
2020/12/07 13:41:47;;;;;;;;;;;5.20;99.90;;;;;;5015409;28;19985;-78
2020/12/07 13:44:13;;;;;;;;;;;5.20;99.90;;;;;;5014710;28;19917;-78
2020/12/07 13:46:39;;;;;;;;;;;5.40;99.90;;;;;;5013465;28;19924;-78
2020/12/07 13:49:04;;;;;;;;;;;5.50;99.90;;;;;;5012879;28;19921;-78
2020/12/07 13:51:31;;;;;;;;;;;5.50;99.90;;;;;;5018488;28;19918;-79
2020/12/07 13:53:57;;;;;;;;;;;5.50;99.90;;;;;;5015657;28;20037;-78
2020/12/07 13:56:23;;;;;;;;;;;5.60;99.90;;;;;;4999542;28;19918;-78
2020/12/07 13:58:50;;;;;;;;;;;5.60;99.90;;;;;;5014189;28;20286;-79
2020/12/07 14:01:16;;;;;;;;;;;5.40;99.90;;;;;;4998339;28;19961;-79
2020/12/07 14:04:13;;;;;;;;;;;5.40;99.90;;;;;;5014300;28;20290;-78
2020/12/07 14:06:28;;;;;;;;;;;5.20;99.90;;;;;;4999374;28;19921;-78
2020/12/07 14:08:54;;;;;;;;;;;5.20;99.90;;;;;;5001184;28;19971;-78
2020/12/07 14:11:20;;;;;;;;;;;5.20;99.90;;;;;;5015890;28;19945;-78
2020/12/07 14:13:46;;;;;;;;;;;5.10;99.90;;;;;;5015927;28;19917;-78
2020/12/07 14:16:15;;;;;;;;;;;5.10;99.90;;;;;;5013973;28;20349;-78
2020/12/07 14:18:55;;;;;;;;;;;5.10;99.90;;;;;;5014339;28;19924;-77
2020/12/07 14:21:47;;;;;;;;;;;5.00;99.90;;;;;;4994862;28;19921;-77
2020/12/07 14:40:22;;;;;;;;;;;4.50;99.90;;;;;;4994604;28;20289;-77
2020/12/07 14:42:48;;;;;;;;;;;4.50;99.90;;;;;;4981804;28;19922;-78
2020/12/07 14:45:18;;;;;;;;;;;4.40;99.90;;;;;;5011560;28;19917;-77
2020/12/07 14:47:58;;;;;;;;;;;4.40;99.90;;;;;;5011459;28;19972;-77
2020/12/07 14:50:28;;;;;;;;;;;4.40;99.90;;;;;;5011600;28;19928;-77
2020/12/07 14:52:55;;;;;;;;;;;4.40;99.90;;;;;;4995418;28;20373;-77
2020/12/07 15:06:17;;;;;;;;;;;4.60;99.90;;;;;;4993882;28;19944;-77
2020/12/07 15:14:23;;;;;;;;;;;4.70;99.90;;;;;;4987534;28;19922;-77
2020/12/07 15:16:48;;;;;;;;;;;4.70;99.90;;;;;;5011430;28;19973;-77
2020/12/07 15:19:14;;;;;;;;;;;4.60;99.90;;;;;;5011818;28;19921;-78
2020/12/07 15:21:40;;;;;;;;;;;4.50;99.90;;;;;;5011436;28;19988;-77
2020/12/07 15:24:06;;;;;;;;;;;4.40;99.90;;;;;;5011194;28;19977;-79
2020/12/07 15:26:32;;;;;;;;;;;4.40;99.90;;;;;;5009717;28;19969;-77
2020/12/07 15:28:58;;;;;;;;;;;4.30;99.90;;;;;;4995710;28;19936;-78
2020/12/07 15:31:23;;;;;;;;;;;4.20;99.90;;;;;;5011121;28;20393;-78
2020/12/07 15:33:49;;;;;;;;;;;4.10;99.90;;;;;;5011348;28;20333;-78
2020/12/07 15:36:15;;;;;;;;;;;4.00;99.90;;;;;;5011258;28;19928;-78
2020/12/07 15:38:41;;;;;;;;;;;4.00;99.90;;;;;;4990253;28;19925;-78